Time;durP1;ratioP1;P1;durP2;ratioP2;P2;SDS_P1;SDS_P2;PMS_P1;PMS_P2;Temp;Humidity;BMP_temperature;BMP_pressure;BME280_temperature;BME280_humidity;BME280_pressure;Samples;Min_cycle;Max_cycle;Signal;HPM_P1;HPM_P2
2022/01/19 00:01:04;;;;;;;10.10;7.03;;;;;;;;;;5093359;28;20555;-79
2022/01/19 00:03:30;;;;;;;11.82;7.63;;;;;;;;;;5110402;28;20044;-81
2022/01/19 00:05:56;;;;;;;10.30;7.22;;;;;;;;;;5112117;28;20024;-80
2022/01/19 00:08:22;;;;;;;10.40;7.38;;;;;;;;;;5112222;28;20023;-80
2022/01/19 00:10:50;;;;;;;10.50;7.18;;;;;;;;;;5111595;28;20020;-78
2022/01/19 00:13:17;;;;;;;10.13;6.53;;;;;;;;;;5093494;28;20015;-79
2022/01/19 00:15:43;;;;;;;11.52;6.72;;;;;;;;;;5111644;28;20051;-79
2022/01/19 00:18:09;;;;;;;10.57;6.78;;;;;;;;;;5111992;28;20074;-79
2022/01/19 00:20:36;;;;;;;9.25;6.65;;;;;;;;;;5112179;28;20487;-78
2022/01/19 00:23:03;;;;;;;10.23;6.40;;;;;;;;;;5112486;28;20070;-79
2022/01/19 00:25:30;;;;;;;9.82;7.00;;;;;;;;;;5112111;28;20024;-79
2022/01/19 00:27:56;;;;;;;7.55;5.97;;;;;;;;;;5112616;28;20151;-79
2022/01/19 00:30:22;;;;;;;8.50;6.00;;;;;;;;;;5094236;28;20027;-79
2022/01/19 00:32:48;;;;;;;7.68;5.82;;;;;;;;;;5112150;28;20019;-80
2022/01/19 00:35:14;;;;;;;8.45;5.97;;;;;;;;;;5093902;28;20031;-80
2022/01/19 00:37:41;;;;;;;6.93;5.80;;;;;;;;;;5111985;28;20028;-80
2022/01/19 00:40:08;;;;;;;7.43;5.82;;;;;;;;;;5112206;28;20387;-79
2022/01/19 00:42:34;;;;;;;8.38;6.07;;;;;;;;;;5111714;28;20019;-80
2022/01/19 00:45:00;;;;;;;9.20;6.13;;;;;;;;;;5093637;28;20496;-80
2022/01/19 00:47:26;;;;;;;8.68;5.25;;;;;;;;;;5093689;28;20020;-80
2022/01/19 00:49:54;;;;;;;8.38;6.20;;;;;;;;;;5111858;28;20376;-80
2022/01/19 00:52:20;;;;;;;7.30;5.38;;;;;;;;;;5111920;28;20031;-80
2022/01/19 00:54:47;;;;;;;7.75;5.75;;;;;;;;;;5110668;28;20027;-81
2022/01/19 00:57:13;;;;;;;7.38;5.40;;;;;;;;;;5092713;28;20019;-80
2022/01/19 00:59:39;;;;;;;8.20;5.43;;;;;;;;;;5091610;28;20024;-80
2022/01/19 01:02:05;;;;;;;8.02;5.28;;;;;;;;;;5110872;28;20022;-79
2022/01/19 01:04:32;;;;;;;7.10;5.18;;;;;;;;;;5092222;28;20395;-80
2022/01/19 01:06:58;;;;;;;6.72;5.32;;;;;;;;;;5110816;28;20092;-80
2022/01/19 01:09:25;;;;;;;7.25;5.30;;;;;;;;;;5092867;28;20394;-80
2022/01/19 01:18:17;;;;;;;7.18;5.18;;;;;;;;;;5109720;28;20038;-80
2022/01/19 01:19:59;;;;;;;7.30;4.85;;;;;;;;;;5109565;28;20028;-80
2022/01/19 01:22:25;;;;;;;6.63;5.28;;;;;;;;;;5111157;28;20028;-80
2022/01/19 01:24:51;;;;;;;6.28;4.85;;;;;;;;;;5111249;28;20031;-80
2022/01/19 01:27:17;;;;;;;5.88;4.53;;;;;;;;;;5111450;28;20444;-80
2022/01/19 01:29:44;;;;;;;6.63;5.00;;;;;;;;;;5111225;28;20027;-80
2022/01/19 01:32:10;;;;;;;6.10;5.00;;;;;;;;;;5111448;28;20020;-81
2022/01/19 01:34:36;;;;;;;6.55;5.13;;;;;;;;;;5092973;28;20027;-80
2022/01/19 01:37:02;;;;;;;7.88;5.25;;;;;;;;;;5111436;28;20495;-80
2022/01/19 01:39:28;;;;;;;6.80;4.32;;;;;;;;;;5111111;28;20368;-80
2022/01/19 01:41:54;;;;;;;5.43;4.28;;;;;;;;;;5111482;28;20480;-81
2022/01/19 01:44:20;;;;;;;6.93;5.45;;;;;;;;;;5111127;28;20044;-80
2022/01/19 01:46:54;;;;;;;6.45;4.57;;;;;;;;;;5111051;28;20487;-81
2022/01/19 01:49:27;;;;;;;6.00;4.47;;;;;;;;;;5111195;28;20063;-80
2022/01/19 01:54:40;;;;;;;5.85;4.65;;;;;;;;;;5111335;28;20047;-81
2022/01/19 01:57:07;;;;;;;5.85;4.90;;;;;;;;;;5111177;28;20050;-81
2022/01/19 01:59:35;;;;;;;6.57;5.45;;;;;;;;;;5110943;28;20051;-80
2022/01/19 02:02:01;;;;;;;5.32;4.20;;;;;;;;;;5092920;28;20024;-80
2022/01/19 02:04:30;;;;;;;6.05;4.60;;;;;;;;;;5111225;28;20036;-79
2022/01/19 02:07:21;;;;;;;6.22;4.85;;;;;;;;;;5111060;28;20054;-79
2022/01/19 02:09:45;;;;;;;6.50;4.30;;;;;;;;;;5110744;28;20028;-80
2022/01/19 02:23:20;;;;;;;6.30;4.43;;;;;;;;;;5114640;28;20165;-79
2022/01/19 02:25:53;;;;;;;5.75;4.30;;;;;;;;;;5114319;28;20072;-79
2022/01/19 02:42:23;;;;;;;4.95;4.13;;;;;;;;;;5114139;28;20030;-80
2022/01/19 02:49:51;;;;;;;6.93;5.13;;;;;;;;;;5113897;28;20035;-81
2022/01/19 02:52:18;;;;;;;6.22;4.70;;;;;;;;;;5095639;28;20483;-81
2022/01/19 02:54:44;;;;;;;6.82;4.65;;;;;;;;;;5112913;28;20031;-81
2022/01/19 02:57:12;;;;;;;6.75;4.90;;;;;;;;;;5113140;28;20463;-80
2022/01/19 03:00:02;;;;;;;7.22;4.90;;;;;;;;;;5112873;28;20064;-80
2022/01/19 03:10:40;;;;;;;5.43;4.20;;;;;;;;;;5112792;28;20038;-80
2022/01/19 03:13:06;;;;;;;6.97;4.38;;;;;;;;;;5112913;28;20043;-80
2022/01/19 03:15:32;;;;;;;6.07;4.53;;;;;;;;;;5112118;28;20046;-80
2022/01/19 03:18:00;;;;;;;6.30;4.80;;;;;;;;;;5094622;28;20391;-77
2022/01/19 03:20:26;;;;;;;5.90;4.70;;;;;;;;;;5094793;28;20510;-80
2022/01/19 03:23:03;;;;;;;6.93;4.93;;;;;;;;;;5112177;28;20019;-78
2022/01/19 03:25:30;;;;;;;5.72;4.53;;;;;;;;;;5094469;28;20035;-78
2022/01/19 03:27:56;;;;;;;6.60;4.45;;;;;;;;;;5113852;28;20054;-79
2022/01/19 03:30:22;;;;;;;7.95;5.00;;;;;;;;;;5095450;28;20027;-79
2022/01/19 03:32:49;;;;;;;6.70;4.78;;;;;;;;;;5113097;28;20023;-79
2022/01/19 03:35:15;;;;;;;7.40;5.25;;;;;;;;;;5094443;28;20059;-79
2022/01/19 03:37:42;;;;;;;7.22;4.57;;;;;;;;;;5112945;28;20070;-80
2022/01/19 03:40:08;;;;;;;8.43;5.22;;;;;;;;;;5113137;28;20027;-80
2022/01/19 03:42:35;;;;;;;8.05;4.70;;;;;;;;;;5094507;28;20418;-79
2022/01/19 03:45:01;;;;;;;6.35;4.50;;;;;;;;;;5094461;28;20410;-80
2022/01/19 03:47:28;;;;;;;6.28;4.80;;;;;;;;;;5112846;28;20051;-80
2022/01/19 03:49:54;;;;;;;7.35;5.15;;;;;;;;;;5113367;28;20037;-79
2022/01/19 03:52:21;;;;;;;5.45;4.28;;;;;;;;;;5094599;28;20479;-79
2022/01/19 03:54:47;;;;;;;6.10;4.78;;;;;;;;;;5112702;28;20393;-79
2022/01/19 03:57:13;;;;;;;5.72;4.45;;;;;;;;;;5112741;28;20050;-80
2022/01/19 03:59:40;;;;;;;6.20;4.85;;;;;;;;;;5112622;28;20391;-80
2022/01/19 04:02:06;;;;;;;6.90;4.80;;;;;;;;;;5112537;28;20035;-79
2022/01/19 04:04:38;;;;;;;6.15;4.43;;;;;;;;;;5094055;28;20441;-79
2022/01/19 04:09:31;;;;;;;5.65;4.15;;;;;;;;;;5112403;28;20028;-80
2022/01/19 04:11:57;;;;;;;5.85;4.07;;;;;;;;;;5112122;28;20035;-79
2022/01/19 04:14:24;;;;;;;6.90;4.68;;;;;;;;;;5112450;28;20028;-80
2022/01/19 04:16:56;;;;;;;6.38;4.38;;;;;;;;;;5093940;28;20020;-80
2022/01/19 04:21:49;;;;;;;6.05;4.32;;;;;;;;;;5112213;28;20062;-79
2022/01/19 04:24:15;;;;;;;8.70;4.70;;;;;;;;;;5112173;28;20043;-80
2022/01/19 04:26:42;;;;;;;5.75;4.07;;;;;;;;;;5112121;28;20569;-80
2022/01/19 04:29:08;;;;;;;5.93;4.13;;;;;;;;;;5112444;28;20051;-80
2022/01/19 04:31:34;;;;;;;6.03;4.80;;;;;;;;;;5111892;28;20067;-80
2022/01/19 04:34:03;;;;;;;5.20;3.88;;;;;;;;;;5112064;28;20475;-80
2022/01/19 04:36:46;;;;;;;7.45;4.80;;;;;;;;;;5111854;28;20088;-80
2022/01/19 04:44:02;;;;;;;6.18;4.25;;;;;;;;;;5093615;28;20016;-81
2022/01/19 05:03:45;;;;;;;5.70;4.35;;;;;;;;;;5111177;28;20100;-79
2022/01/19 05:06:15;;;;;;;5.22;3.97;;;;;;;;;;5110704;28;20464;-79
2022/01/19 05:13:55;;;;;;;6.15;4.25;;;;;;;;;;5111226;28;20042;-80
2022/01/19 05:16:22;;;;;;;5.75;4.15;;;;;;;;;;5092705;28;20024;-80
2022/01/19 05:18:49;;;;;;;6.38;4.30;;;;;;;;;;5110476;28;20038;-80
2022/01/19 05:21:15;;;;;;;6.07;3.90;;;;;;;;;;5110739;28;20028;-80
2022/01/19 05:23:41;;;;;;;6.47;4.28;;;;;;;;;;5111258;28;20032;-80
2022/01/19 05:26:07;;;;;;;5.25;3.78;;;;;;;;;;5111261;28;20099;-80
2022/01/19 05:28:33;;;;;;;5.05;3.47;;;;;;;;;;5111377;28;20032;-80
2022/01/19 05:30:59;;;;;;;4.90;3.35;;;;;;;;;;5111519;28;20502;-81
2022/01/19 05:33:25;;;;;;;5.40;3.63;;;;;;;;;;5111613;28;20076;-80
2022/01/19 05:35:51;;;;;;;5.13;3.80;;;;;;;;;;5110618;28;20031;-83
2022/01/19 05:38:17;;;;;;;5.10;3.70;;;;;;;;;;5111122;28;20491;-78
2022/01/19 05:40:43;;;;;;;5.60;3.85;;;;;;;;;;5111038;28;20031;-79
2022/01/19 05:43:10;;;;;;;5.65;3.65;;;;;;;;;;5092485;28;20046;-79
2022/01/19 05:45:36;;;;;;;5.63;3.70;;;;;;;;;;5111852;28;20076;-79
2022/01/19 05:48:02;;;;;;;4.68;3.72;;;;;;;;;;5115417;28;20043;-79
2022/01/19 05:50:28;;;;;;;6.00;4.15;;;;;;;;;;5115460;28;20027;-79
2022/01/19 05:52:54;;;;;;;5.43;3.78;;;;;;;;;;5115050;28;20024;-78
2022/01/19 05:55:20;;;;;;;5.53;4.15;;;;;;;;;;5114425;28;20468;-79
2022/01/19 05:57:46;;;;;;;6.18;4.10;;;;;;;;;;5113974;28;20015;-79
2022/01/19 06:00:13;;;;;;;5.07;3.97;;;;;;;;;;5094768;28;20031;-79
2022/01/19 06:02:39;;;;;;;4.93;3.45;;;;;;;;;;5112990;28;20027;-78
2022/01/19 06:05:06;;;;;;;6.18;3.65;;;;;;;;;;5115338;28;20119;-79
2022/01/19 06:07:40;;;;;;;5.85;4.07;;;;;;;;;;5114743;28;20028;-79
2022/01/19 06:10:11;;;;;;;4.85;3.60;;;;;;;;;;5114635;28;20435;-79
2022/01/19 06:12:38;;;;;;;9.45;4.40;;;;;;;;;;5113148;28;20035;-79
2022/01/19 06:15:05;;;;;;;6.05;4.20;;;;;;;;;;5115003;28;20417;-79
2022/01/19 06:17:31;;;;;;;5.63;4.25;;;;;;;;;;5114632;28;20023;-79
2022/01/19 06:19:57;;;;;;;5.40;4.03;;;;;;;;;;5114930;28;20024;-80
2022/01/19 06:22:23;;;;;;;5.35;3.53;;;;;;;;;;5113221;28;20024;-80
2022/01/19 06:24:49;;;;;;;5.68;4.20;;;;;;;;;;5114165;28;20038;-80
2022/01/19 06:27:15;;;;;;;5.30;3.85;;;;;;;;;;5114426;28;20027;-79
2022/01/19 06:29:41;;;;;;;5.90;3.75;;;;;;;;;;5096197;28;20032;-79
2022/01/19 06:32:07;;;;;;;4.97;3.70;;;;;;;;;;5113315;28;20027;-78
2022/01/19 06:34:33;;;;;;;5.05;3.65;;;;;;;;;;5114262;28;20034;-80
2022/01/19 06:36:59;;;;;;;5.28;4.10;;;;;;;;;;5114408;28;20026;-78
2022/01/19 06:39:25;;;;;;;5.63;3.65;;;;;;;;;;5114850;28;20052;-78
2022/01/19 06:41:51;;;;;;;6.53;4.00;;;;;;;;;;5114179;28;20453;-79
2022/01/19 06:44:17;;;;;;;4.53;3.90;;;;;;;;;;5114131;28;20407;-79
2022/01/19 06:46:44;;;;;;;5.72;3.80;;;;;;;;;;5114065;28;20130;-79
2022/01/19 06:49:11;;;;;;;6.25;4.00;;;;;;;;;;5114277;28;20026;-79
2022/01/19 06:51:37;;;;;;;6.22;3.97;;;;;;;;;;5113973;28;20047;-78
2022/01/19 06:54:03;;;;;;;5.75;4.00;;;;;;;;;;5113891;28;20035;-79
2022/01/19 06:56:29;;;;;;;5.85;4.25;;;;;;;;;;5112498;28;20467;-77
2022/01/19 06:58:55;;;;;;;5.15;3.95;;;;;;;;;;5113316;28;20118;-78
2022/01/19 07:01:21;;;;;;;5.88;4.03;;;;;;;;;;5114055;28;20051;-78
2022/01/19 07:03:47;;;;;;;4.45;3.45;;;;;;;;;;5113363;28;20040;-76
2022/01/19 07:06:14;;;;;;;4.68;3.35;;;;;;;;;;5113527;28;20065;-78
2022/01/19 07:08:41;;;;;;;5.85;3.83;;;;;;;;;;5113510;28;20102;-78
2022/01/19 07:11:07;;;;;;;5.68;3.40;;;;;;;;;;5113581;28;20027;-78
2022/01/19 07:13:33;;;;;;;9.13;4.05;;;;;;;;;;5113578;28;20031;-78
2022/01/19 07:15:59;;;;;;;6.18;3.70;;;;;;;;;;5113651;28;20016;-77
2022/01/19 07:18:25;;;;;;;6.07;3.83;;;;;;;;;;5114011;28;20072;-76
2022/01/19 07:20:51;;;;;;;6.43;3.53;;;;;;;;;;5111987;28;20028;-77
2022/01/19 07:23:17;;;;;;;4.57;3.50;;;;;;;;;;5113858;27;20499;-78
2022/01/19 07:25:43;;;;;;;5.15;3.85;;;;;;;;;;5112920;28;20019;-74
2022/01/19 07:28:11;;;;;;;6.72;3.63;;;;;;;;;;5113321;28;20081;-76
2022/01/19 07:30:37;;;;;;;6.38;3.95;;;;;;;;;;5112743;28;20026;-76
2022/01/19 07:33:03;;;;;;;5.05;3.85;;;;;;;;;;5113334;28;20136;-77
2022/01/19 07:35:29;;;;;;;5.05;3.42;;;;;;;;;;5112696;28;20044;-77
2022/01/19 07:37:55;;;;;;;7.20;3.70;;;;;;;;;;5111717;28;20032;-76
2022/01/19 07:40:22;;;;;;;5.93;3.88;;;;;;;;;;5111245;27;20064;-76
2022/01/19 07:42:48;;;;;;;5.85;3.47;;;;;;;;;;5111287;28;20396;-78
2022/01/19 07:45:14;;;;;;;5.32;3.67;;;;;;;;;;5112728;28;20040;-81
2022/01/19 07:47:40;;;;;;;9.60;3.72;;;;;;;;;;5092615;28;20030;-84
2022/01/19 07:50:07;;;;;;;6.78;3.47;;;;;;;;;;5113018;28;20027;-76
2022/01/19 07:52:33;;;;;;;5.72;4.15;;;;;;;;;;5112697;28;20016;-77
2022/01/19 07:54:59;;;;;;;8.00;3.63;;;;;;;;;;5112592;28;20038;-76
2022/01/19 07:57:25;;;;;;;5.68;3.92;;;;;;;;;;5094995;28;20023;-76
2022/01/19 07:59:51;;;;;;;8.90;4.03;;;;;;;;;;5112725;28;20027;-76
2022/01/19 08:02:17;;;;;;;8.05;3.70;;;;;;;;;;5112994;28;20327;-76
2022/01/19 08:04:43;;;;;;;8.38;4.30;;;;;;;;;;5112114;28;20043;-76
2022/01/19 08:07:09;;;;;;;9.10;4.80;;;;;;;;;;5112207;28;20028;-76
2022/01/19 08:09:35;;;;;;;6.95;4.47;;;;;;;;;;5109958;28;20031;-76
2022/01/19 08:12:02;;;;;;;7.75;3.70;;;;;;;;;;5110838;28;20487;-77
2022/01/19 08:14:28;;;;;;;8.13;4.70;;;;;;;;;;5110494;28;20404;-77
2022/01/19 08:16:55;;;;;;;8.45;4.43;;;;;;;;;;5111166;28;20052;-76
2022/01/19 08:19:21;;;;;;;6.85;3.67;;;;;;;;;;5092738;28;20403;-76
2022/01/19 08:21:47;;;;;;;5.55;3.90;;;;;;;;;;5111718;28;20035;-78
2022/01/19 08:24:13;;;;;;;6.68;4.30;;;;;;;;;;5093320;28;20035;-78
2022/01/19 08:26:39;;;;;;;9.80;4.38;;;;;;;;;;5110403;27;20028;-77
2022/01/19 08:29:05;;;;;;;8.25;4.05;;;;;;;;;;5092879;28;20395;-78
2022/01/19 08:31:32;;;;;;;8.88;4.40;;;;;;;;;;5110153;28;20026;-77
2022/01/19 08:33:58;;;;;;;7.97;4.30;;;;;;;;;;5087143;28;20072;-77
2022/01/19 08:36:24;;;;;;;6.88;4.43;;;;;;;;;;5112439;28;20034;-77
2022/01/19 08:38:50;;;;;;;5.20;3.97;;;;;;;;;;5111789;28;20032;-76
2022/01/19 08:41:16;;;;;;;6.25;3.90;;;;;;;;;;5112220;28;20024;-76
2022/01/19 08:43:42;;;;;;;5.72;4.40;;;;;;;;;;5111811;28;20043;-77
2022/01/19 08:46:08;;;;;;;5.78;3.90;;;;;;;;;;5112154;28;20406;-77
2022/01/19 08:48:34;;;;;;;4.90;3.55;;;;;;;;;;5111563;28;20024;-76
2022/01/19 08:51:02;;;;;;;6.53;4.20;;;;;;;;;;5111838;28;20015;-76
2022/01/19 08:53:28;;;;;;;9.40;3.80;;;;;;;;;;5111820;28;20023;-77
2022/01/19 08:55:54;;;;;;;6.97;3.97;;;;;;;;;;5112584;28;20023;-75
2022/01/19 08:58:20;;;;;;;6.88;4.35;;;;;;;;;;5111951;28;20096;-76
2022/01/19 09:00:46;;;;;;;8.90;5.97;;;;;;;;;;5111539;28;20459;-76
2022/01/19 09:03:12;;;;;;;10.20;6.47;;;;;;;;;;5111502;28;20504;-76
2022/01/19 09:05:38;;;;;;;9.02;5.93;;;;;;;;;;5111480;28;20035;-76
2022/01/19 09:08:05;;;;;;;10.32;6.82;;;;;;;;;;5111616;28;20092;-76
2022/01/19 09:10:31;;;;;;;9.68;6.47;;;;;;;;;;5111569;28;20077;-76
2022/01/19 09:12:57;;;;;;;9.85;6.20;;;;;;;;;;5111630;28;20019;-76
2022/01/19 09:15:23;;;;;;;11.57;6.55;;;;;;;;;;5112027;28;20137;-77
2022/01/19 09:17:50;;;;;;;7.45;5.72;;;;;;;;;;5111322;28;20030;-77
2022/01/19 09:20:16;;;;;;;8.32;6.03;;;;;;;;;;5110408;28;20028;-77
2022/01/19 09:22:43;;;;;;;8.52;5.03;;;;;;;;;;5109572;28;20027;-77
2022/01/19 09:25:09;;;;;;;9.10;6.38;;;;;;;;;;5109618;28;20032;-77
2022/01/19 09:27:38;;;;;;;7.47;6.00;;;;;;;;;;5092063;28;20035;-76
2022/01/19 09:30:05;;;;;;;8.32;5.78;;;;;;;;;;5093174;28;20031;-77
2022/01/19 09:32:31;;;;;;;9.18;6.40;;;;;;;;;;5110879;28;20072;-77
2022/01/19 09:35:06;;;;;;;8.95;5.65;;;;;;;;;;5110975;28;20024;-77
2022/01/19 09:37:32;;;;;;;8.52;5.90;;;;;;;;;;5110447;28;20476;-77
2022/01/19 09:39:58;;;;;;;7.40;5.40;;;;;;;;;;5111389;28;20095;-77
2022/01/19 09:42:24;;;;;;;7.28;5.13;;;;;;;;;;5111064;28;20031;-77
2022/01/19 09:44:52;;;;;;;8.85;4.80;;;;;;;;;;5110762;28;20031;-77
2022/01/19 09:47:18;;;;;;;7.15;5.18;;;;;;;;;;5110837;28;20024;-77
2022/01/19 09:49:44;;;;;;;7.53;4.93;;;;;;;;;;5109715;28;20020;-77
2022/01/19 09:52:10;;;;;;;7.45;5.45;;;;;;;;;;5109533;28;20012;-77
2022/01/19 09:54:36;;;;;;;6.68;5.15;;;;;;;;;;5109753;28;20051;-77
2022/01/19 09:57:02;;;;;;;7.57;4.88;;;;;;;;;;5109269;28;20024;-77
2022/01/19 09:59:28;;;;;;;7.95;4.95;;;;;;;;;;5110117;28;20372;-76
2022/01/19 10:01:56;;;;;;;8.40;5.25;;;;;;;;;;5110577;28;20035;-76
2022/01/19 10:04:23;;;;;;;5.57;4.45;;;;;;;;;;5110282;28;20073;-77
2022/01/19 10:06:49;;;;;;;6.70;4.97;;;;;;;;;;5110036;28;20031;-77
2022/01/19 10:09:23;;;;;;;6.50;5.00;;;;;;;;;;5108394;28;20028;-77
2022/01/19 10:17:02;;;;;;;10.68;5.18;;;;;;;;;;5109826;28;20035;-77
2022/01/19 10:19:28;;;;;;;7.95;5.43;;;;;;;;;;5109979;28;20032;-77
2022/01/19 10:21:58;;;;;;;6.65;4.78;;;;;;;;;;5110611;28;20031;-77
2022/01/19 10:24:35;;;;;;;8.75;5.13;;;;;;;;;;5110739;28;20050;-76
2022/01/19 10:27:20;;;;;;;6.47;4.65;;;;;;;;;;5110372;28;20487;-76
2022/01/19 10:29:47;;;;;;;5.93;4.88;;;;;;;;;;5108364;28;20027;-77
2022/01/19 10:32:13;;;;;;;8.05;5.05;;;;;;;;;;5111186;28;20108;-77
2022/01/19 10:34:40;;;;;;;8.98;4.93;;;;;;;;;;5114362;28;20024;-77
2022/01/19 10:37:06;;;;;;;7.18;4.57;;;;;;;;;;5114624;28;20028;-77
2022/01/19 10:39:41;;;;;;;7.68;4.70;;;;;;;;;;5113390;28;20476;-77
2022/01/19 10:42:08;;;;;;;6.63;4.70;;;;;;;;;;5110483;28;20054;-77
2022/01/19 10:44:44;;;;;;;8.93;4.80;;;;;;;;;;5109684;28;20039;-77
2022/01/19 10:47:11;;;;;;;6.57;4.38;;;;;;;;;;5112611;28;20016;-77
2022/01/19 10:49:48;;;;;;;7.63;5.10;;;;;;;;;;5113342;28;20550;-77
2022/01/19 10:52:33;;;;;;;6.00;4.43;;;;;;;;;;5113643;28;20026;-77
2022/01/19 10:55:00;;;;;;;5.28;4.30;;;;;;;;;;5113275;28;20057;-77
2022/01/19 10:57:30;;;;;;;6.72;4.95;;;;;;;;;;5113171;28;20497;-77
2022/01/19 11:00:13;;;;;;;8.48;5.00;;;;;;;;;;5113449;28;20024;-77
2022/01/19 11:02:39;;;;;;;6.70;4.55;;;;;;;;;;5112837;28;20027;-77
2022/01/19 11:05:05;;;;;;;7.80;4.90;;;;;;;;;;5111787;28;20039;-76
2022/01/19 11:07:31;;;;;;;8.95;5.10;;;;;;;;;;5112173;28;20020;-77
2022/01/19 11:09:58;;;;;;;6.18;3.97;;;;;;;;;;5094840;28;20483;-77
2022/01/19 11:12:29;;;;;;;6.70;4.43;;;;;;;;;;5113271;28;20107;-76
2022/01/19 11:14:55;;;;;;;7.38;5.47;;;;;;;;;;5112191;28;20042;-76
2022/01/19 11:17:21;;;;;;;7.22;4.80;;;;;;;;;;5112806;28;20020;-76
2022/01/19 11:19:48;;;;;;;6.13;4.15;;;;;;;;;;5112611;28;20032;-76
2022/01/19 11:22:14;;;;;;;6.75;4.50;;;;;;;;;;5094432;28;20080;-77
2022/01/19 11:24:43;;;;;;;8.23;5.30;;;;;;;;;;5094645;28;20047;-77
2022/01/19 11:27:10;;;;;;;9.57;4.80;;;;;;;;;;5095163;28;20020;-77
2022/01/19 11:29:38;;;;;;;6.78;4.88;;;;;;;;;;5113466;28;20035;-77
2022/01/19 11:32:15;;;;;;;7.85;4.90;;;;;;;;;;5095092;28;20024;-76
2022/01/19 11:34:50;;;;;;;7.65;4.68;;;;;;;;;;5115040;27;20394;-76
2022/01/19 11:37:31;;;;;;;5.68;4.60;;;;;;;;;;5112913;27;20779;-76
2022/01/19 11:40:03;;;;;;;6.40;4.72;;;;;;;;;;5112977;28;20029;-77
2022/01/19 11:42:29;;;;;;;7.43;4.53;;;;;;;;;;5112780;28;20024;-77
2022/01/19 11:44:55;;;;;;;8.68;5.25;;;;;;;;;;5113019;28;20035;-77
2022/01/19 11:47:23;;;;;;;8.68;5.30;;;;;;;;;;5112025;28;20027;-79
2022/01/19 11:49:52;;;;;;;6.97;5.10;;;;;;;;;;5111048;28;20032;-76
2022/01/19 11:52:20;;;;;;;7.75;5.00;;;;;;;;;;5111208;28;20038;-80
2022/01/19 11:54:46;;;;;;;8.00;4.45;;;;;;;;;;5110275;28;20062;-78
2022/01/19 11:57:15;;;;;;;6.70;4.55;;;19.50;57.00;;;;;;5110523;28;20027;-77
2022/01/19 11:59:47;;;;;;;7.32;4.53;;;;;;;;;;5091998;28;20085;-79
2022/01/19 12:02:26;;;;;;;7.70;4.60;;;;;;;;;;5108214;28;20028;-82
2022/01/19 12:04:58;;;;;;;5.20;4.03;;;;;;;;;;5108919;28;20023;-80
2022/01/19 12:07:35;;;;;;;7.32;4.47;;;;;;;;;;5092820;28;20410;-80
2022/01/19 12:10:01;;;;;;;7.35;4.28;;;;;;;;;;5093443;28;20102;-79
2022/01/19 12:12:32;;;;;;;7.63;4.20;;;;;;;;;;5093604;28;20054;-78
2022/01/19 12:15:02;;;;;;;7.13;4.28;;;;;;;;;;5111665;28;20039;-79
2022/01/19 12:17:52;;;;;;;7.13;3.90;;;;;;;;;;5110955;28;20372;-80
2022/01/19 12:20:56;;;;;;;8.70;4.78;;;;;;;;;;5112360;28;20020;-79
2022/01/19 12:23:29;;;;;;;6.95;4.25;;;;;;;;;;5010344;28;20042;-79
2022/01/19 12:25:56;;;;;;;6.35;4.15;;;;;;;;;;5010365;28;20429;-79
2022/01/19 12:28:56;;;;;;;4.85;3.90;;;;;;;;;;5064168;28;20063;-80
2022/01/19 12:31:25;;;;;;;5.95;3.75;;;;;;;;;;5039503;28;20380;-79
2022/01/19 12:34:00;;;;;;;5.40;3.17;;;;;;;;;;5111888;28;20032;-79
2022/01/19 12:36:46;;;;;;;6.00;3.70;;;;;;;;;;5112171;28;20057;-77
2022/01/19 12:39:28;;;;;;;6.07;3.92;;;;;;;;;;5112063;28;20282;-80
2022/01/19 12:42:14;;;;;;;6.97;4.00;;;;;;;;;;5112362;28;20510;-79
2022/01/19 12:44:40;;;;;;;6.25;4.30;;;;;;;;;;5111592;28;20039;-79
2022/01/19 12:47:29;;;;;;;7.88;4.20;;;;;;;;;;5112066;28;20031;-78
2022/01/19 12:50:01;;;;;;;8.02;4.28;;;;;;;;;;5112397;28;20028;-78
2022/01/19 12:52:28;;;;;;;8.75;4.55;;;;;;;;;;5111068;28;20034;-79
2022/01/19 12:54:55;;;;;;;8.00;5.03;;;;;;;;;;5111141;28;20031;-78
2022/01/19 12:57:21;;;;;;;7.22;4.53;;;;;;;;;;5111941;28;20023;-78
2022/01/19 12:59:49;;;;;;;7.68;5.18;;;;;;;;;;5111318;28;20031;-77
2022/01/19 13:02:16;;;;;;;8.25;4.68;;;;;;;;;;5111990;28;20023;-77
2022/01/19 13:04:46;;;;;;;8.23;5.43;;;;;;;;;;5111698;28;20037;-78
2022/01/19 13:07:15;;;;;;;6.85;4.93;;;;;;;;;;5111293;28;20019;-77
2022/01/19 13:10:05;;;;;;;10.13;5.60;;;;;;;;;;5111667;28;20400;-77
2022/01/19 13:12:38;;;;;;;8.27;4.75;;;;;;;;;;5111702;28;20031;-77
2022/01/19 13:15:04;;;;;;;8.82;5.28;;;;;;;;;;5111518;28;20049;-77
2022/01/19 13:17:46;;;;;;;9.57;5.50;;;;;;;;;;5111086;28;20032;-77
2022/01/19 13:20:31;;;;;;;8.07;4.90;;;;;;;;;;5111833;28;20022;-77
2022/01/19 13:22:57;;;;;;;8.27;5.17;;;;;;;;;;5111770;28;20023;-77
2022/01/19 13:25:30;;;;;;;10.68;6.05;;;;;;;;;;5111793;28;20298;-77
2022/01/19 13:27:58;;;;;;;6.85;4.65;;;;;;;;;;5111880;28;20027;-77
2022/01/19 13:30:25;;;;;;;9.50;5.10;;;;;;;;;;5111323;28;20039;-77
2022/01/19 13:32:51;;;;;;;8.10;5.28;;;;;;;;;;5111289;28;20028;-77
2022/01/19 13:35:18;;;;;;;7.60;5.45;;;;;;;;;;5111514;28;20028;-77
2022/01/19 13:37:46;;;;;;;8.40;5.65;;;;;;;;;;5110810;28;20023;-76
2022/01/19 13:40:12;;;;;;;8.77;5.68;;;;;;;;;;5111552;28;20015;-78
2022/01/19 13:42:39;;;;;;;8.30;5.38;;;;;;;;;;5111084;28;20084;-77
2022/01/19 13:45:10;;;;;;;9.43;5.78;;;;;;;;;;5111177;28;20043;-77
2022/01/19 13:50:38;;;;;;;8.93;5.53;;;;;;;;;;5111026;28;20038;-77
2022/01/19 13:53:04;;;;;;;8.30;5.80;;;;;;;;;;5111183;28;20481;-77
2022/01/19 13:55:30;;;;;;;8.45;5.30;;;;;;;;;;5111136;28;20061;-78
2022/01/19 13:58:13;;;;;;;8.40;5.05;;;;;;;;;;5111662;28;20021;-78
2022/01/19 14:00:55;;;;;;;8.35;5.43;;;;;;;;;;5111084;28;20472;-78
2022/01/19 14:03:22;;;;;;;9.88;5.60;;;;;;;;;;5111080;28;20150;-78
2022/01/19 14:05:51;;;;;;;8.90;5.22;;;;;;;;;;5110726;28;20102;-77
2022/01/19 14:08:28;;;;;;;9.63;5.88;;;;;;;;;;5115029;28;20028;-77
2022/01/19 14:10:54;;;;;;;10.10;6.07;;;;;;;;;;5097242;28;20639;-78
2022/01/19 14:13:21;;;;;;;9.05;5.63;;;;;;;;;;5114950;28;20019;-77
2022/01/19 14:15:47;;;;;;;8.60;5.72;;;;;;;;;;5114390;28;20817;-77
2022/01/19 14:18:13;;;;;;;9.10;6.05;;;;;;;;;;5114666;28;20020;-77
2022/01/19 14:20:40;;;;;;;9.50;6.05;;;;;;;;;;5114642;28;20027;-77
2022/01/19 14:23:13;;;;;;;10.60;6.25;;;;;;;;;;5114820;28;20384;-78
2022/01/19 14:25:39;;;;;;;8.52;5.22;;;;;;;;;;5114529;28;20103;-77
2022/01/19 14:28:15;;;;;;;9.32;5.85;;;;;;;;;;5096377;28;20115;-77
2022/01/19 14:30:42;;;;;;;9.65;5.70;;;;;;;;;;5114217;28;20027;-79
2022/01/19 14:33:15;;;;;;;8.60;5.63;;;;;;;;;;5114676;28;20032;-78
2022/01/19 14:35:40;;;;;;;9.75;5.65;;;;;;;;;;5113963;28;20050;-76
2022/01/19 14:38:06;;;;;;;8.32;5.35;;;;;;;;;;5113780;28;20055;-79
2022/01/19 14:40:53;;;;;;;8.90;5.50;;;;;;;;;;5114296;28;20490;-79
2022/01/19 14:43:22;;;;;;;9.18;5.65;;;;;;;;;;5096866;28;20059;-78
2022/01/19 14:45:52;;;;;;;9.20;6.00;;;;;;;;;;5113910;28;20035;-79
2022/01/19 14:48:19;;;;;;;8.63;6.18;;;;;;;;;;5114466;28;20077;-78
2022/01/19 14:50:45;;;;;;;11.77;5.35;;;;;;;;;;5114114;28;20020;-78
2022/01/19 14:53:12;;;;;;;9.00;5.45;;;;;;;;;;5113930;28;20376;-77
2022/01/19 14:55:40;;;;;;;8.73;6.18;;;;;;;;;;5113800;28;20016;-77
2022/01/19 14:58:07;;;;;;;8.30;5.90;;;;;;;;;;5114078;28;20035;-77
2022/01/19 15:00:34;;;;;;;7.45;5.45;;;;;;;;;;5113837;28;20031;-78
2022/01/19 15:03:02;;;;;;;9.25;5.50;;;;;;;;;;5114025;28;20038;-78
2022/01/19 15:05:29;;;;;;;9.32;5.65;;;;;;;;;;5113438;28;20124;-77
2022/01/19 15:07:55;;;;;;;7.85;5.30;;;;;;;;;;5114329;28;20027;-78
2022/01/19 15:10:22;;;;;;;8.13;5.22;;;;;;;;;;5113719;28;20028;-78
2022/01/19 15:12:52;;;;;;;8.20;5.28;;;;;;;;;;5113731;28;20026;-78
2022/01/19 15:15:21;;;;;;;7.93;5.32;;;;;;;;;;5113299;28;20066;-78
2022/01/19 15:17:47;;;;;;;9.93;5.20;;;;;;;;;;5112688;28;20467;-78
2022/01/19 15:20:13;;;;;;;6.88;4.95;;;;;;;;;;5114032;28;20468;-78
2022/01/19 15:22:39;;;;;;;9.00;5.10;;;;;;;;;;5113257;28;20019;-78
2022/01/19 15:25:05;;;;;;;9.60;5.47;;;;;;;;;;5113729;28;20506;-77
2022/01/19 15:27:31;;;;;;;8.27;5.50;;;;;;;;;;5113388;28;20022;-76
2022/01/19 15:29:57;;;;;;;10.73;5.40;;;;;;;;;;5113595;28;20019;-76
2022/01/19 15:32:23;;;;;;;7.80;4.72;;;;;;;;;;5113821;28;20524;-78
2022/01/19 15:34:49;;;;;;;8.35;5.03;;;;;;;;;;5113085;28;20020;-76
2022/01/19 15:37:15;;;;;;;8.55;5.13;;;;;;;;;;5112457;28;20387;-78
2022/01/19 15:39:46;;;;;;;7.82;5.00;;;;;;;;;;5112759;28;20035;-78
2022/01/19 15:42:14;;;;;;;8.15;4.88;;;;;;;;;;5112995;28;20042;-78
2022/01/19 15:44:40;;;;;;;8.10;4.50;;;;;;;;;;5094493;28;20043;-77
2022/01/19 15:47:06;;;;;;;9.90;5.85;;;;;;;;;;5094841;28;20031;-78
2022/01/19 15:49:32;;;;;;;9.18;5.20;;;;;;;;;;5112949;28;20028;-77
2022/01/19 15:51:58;;;;;;;10.40;5.18;;;;;;;;;;5113155;28;20023;-77
2022/01/19 15:54:24;;;;;;;7.65;4.50;;;;;;;;;;5113414;28;20032;-77
2022/01/19 15:56:51;;;;;;;7.28;4.40;;;;;;;;;;5112879;28;20048;-79
2022/01/19 15:59:17;;;;;;;6.57;4.38;;;;;;;;;;5113429;28;20042;-76
2022/01/19 16:01:43;;;;;;;8.93;4.80;;;;;;;;;;5112180;28;20383;-76
2022/01/19 16:04:10;;;;;;;10.73;4.70;;;;;;;;;;5112745;28;20377;-78
2022/01/19 16:06:42;;;;;;;8.63;4.90;;;;;;;;;;5112453;28;20032;-76
2022/01/19 16:09:08;;;;;;;11.35;5.13;;;;;;;;;;5112791;28;20483;-76
2022/01/19 16:11:34;;;;;;;9.52;4.47;;;;;;;;;;5112534;28;20028;-76
2022/01/19 16:14:00;;;;;;;7.38;4.32;;;;;;;;;;5112381;28;20080;-78